Time;durP1;ratioP1;P1;durP2;ratioP2;P2;SDS_P1;SDS_P2;PMS_P1;PMS_P2;Temp;Humidity;BMP_temperature;BMP_pressure;BME280_temperature;BME280_humidity;BME280_pressure;Samples;Min_cycle;Max_cycle;Signal;HPM_P1;HPM_P2
2023/05/20 00:02:18;;;;;;;;;17.00;15.00;;;;;15.64;50.89;101367.78;5055517;28;45791;-78
2023/05/20 00:04:43;;;;;;;;;18.00;15.50;;;;;15.62;50.99;101359.13;5055226;28;45620;-79
2023/05/20 00:07:09;;;;;;;;;18.00;15.25;;;;;15.62;50.83;101356.47;5055097;28;46220;-78
2023/05/20 00:12:55;;;;;;;;;13.75;13.00;;;;;15.58;50.80;101373.53;5055034;28;45671;-77
2023/05/20 00:15:21;;;;;;;;;16.50;15.00;;;;;15.54;50.92;101366.81;5054972;28;46478;-78
2023/05/20 00:17:46;;;;;;;;;18.00;15.25;;;;;15.52;50.85;101358.19;5054954;28;46395;-78
2023/05/20 00:20:12;;;;;;;;;13.50;12.50;;;;;15.49;51.21;101374.25;5055019;28;45746;-79
2023/05/20 00:22:37;;;;;;;;;13.50;12.75;;;;;15.39;51.41;101352.16;5055108;28;45585;-79
2023/05/20 00:28:24;;;;;;;;;13.50;12.50;;;;;15.44;50.79;101358.75;5055481;28;45926;-78
2023/05/20 00:30:49;;;;;;;;;13.50;10.50;;;;;15.34;51.18;101352.50;5055666;28;45549;-78
2023/05/20 00:33:15;;;;;;;;;12.00;11.50;;;;;15.42;51.26;101371.25;5055358;28;45698;-78
2023/05/20 00:35:40;;;;;;;;;13.75;12.50;;;;;15.31;51.47;101346.66;5055450;28;46348;-79
2023/05/20 00:38:06;;;;;;;;;12.75;12.00;;;;;15.27;51.25;101345.22;5058045;28;46002;-76
2023/05/20 00:40:31;;;;;;;;;16.00;13.50;;;;;15.39;51.13;101352.16;5060951;28;45592;-78
2023/05/20 00:42:56;;;;;;;;;14.75;13.75;;;;;15.30;51.25;101343.16;5061616;28;45587;-79
2023/05/20 00:45:22;;;;;;;;;12.25;11.75;;;;;15.38;51.14;101350.50;5054738;28;46607;-78
2023/05/20 00:47:47;;;;;;;;;17.75;15.25;;;;;15.37;51.32;101346.16;5054377;28;45815;-78
2023/05/20 00:50:13;;;;;;;;;15.75;15.25;;;;;15.17;51.42;101317.88;5054621;28;45749;-78
2023/05/20 00:52:40;;;;;;;;;13.25;11.25;;;;;15.30;51.57;101332.59;5054699;28;45681;-78
2023/05/20 00:58:27;;;;;;;;;13.25;12.00;;;;;15.25;51.62;101341.84;5053938;28;46122;-77
2023/05/20 01:00:52;;;;;;;;;17.25;13.75;;;;;15.18;51.57;101330.91;5054360;28;45686;-78
2023/05/20 01:03:18;;;;;;;;;13.00;12.00;;;;;15.17;51.61;101323.97;5054659;28;45638;-78
2023/05/20 01:05:43;;;;;;;;;14.75;12.50;;;;;15.20;51.39;101334.28;5054495;28;45510;-78
2023/05/20 01:08:09;;;;;;;;;15.25;13.25;;;;;15.22;51.78;101316.53;5054318;28;45726;-78
2023/05/20 01:14:06;;;;;;;;;13.25;12.25;;;;;15.10;51.66;101315.72;5054119;28;45656;-77
2023/05/20 01:16:34;;;;;;;;;13.50;12.25;;;;;15.06;52.02;101301.03;5054226;28;46832;-78
2023/05/20 01:19:02;;;;;;;;;13.25;10.25;;;;;15.11;51.78;101313.91;5054039;28;46080;-77
2023/05/20 01:21:31;;;;;;;;;19.75;14.75;;;;;15.11;51.90;101320.00;5052660;28;45923;-78
2023/05/20 01:23:56;;;;;;;;;13.75;11.75;;;;;15.14;51.85;101324.22;5054373;28;45717;-78
2023/05/20 01:26:25;;;;;;;;;16.25;13.50;;;;;15.09;51.88;101308.75;5054275;28;46330;-79
2023/05/20 01:28:51;;;;;;;;;14.25;8.75;;;;;15.16;51.94;101310.91;5054015;28;45771;-79
2023/05/20 01:31:22;;;;;;;;;13.25;13.00;;;;;15.12;51.94;101316.41;5054077;28;45495;-80
2023/05/20 01:33:53;;;;;;;;;13.50;11.50;;;;;15.08;52.04;101306.22;5054106;28;45702;-78
2023/05/20 01:36:20;;;;;;;;;15.75;14.00;;;;;15.08;52.06;101314.97;5054268;28;46684;-78
2023/05/20 01:38:48;;;;;;;;;19.50;14.25;;;;;15.07;52.12;101317.72;5053337;28;47196;-78
2023/05/20 01:41:14;;;;;;;;;16.50;13.25;;;;;14.96;52.34;101307.16;5053861;28;45687;-79
2023/05/20 01:43:40;;;;;;;;;12.00;12.00;;;;;14.86;52.01;101288.59;5053476;28;45762;-79
2023/05/20 01:46:06;;;;;;;;;13.50;11.25;;;;;14.68;52.21;101258.38;5053760;28;46301;-78
2023/05/20 01:48:31;;;;;;;;;19.25;13.00;;;;;14.88;52.63;101289.31;5053622;28;45987;-79
2023/05/20 01:50:56;;;;;;;;;18.50;14.25;;;;;14.91;52.58;101301.41;5053760;28;45623;-77
2023/05/20 01:53:22;;;;;;;;;12.00;11.50;;;;;14.92;52.46;101303.94;5053740;28;45688;-79
2023/05/20 01:59:09;;;;;;;;;19.25;13.25;;;;;14.87;52.96;101290.28;5053071;28;46104;-80
2023/05/20 02:01:34;;;;;;;;;14.75;12.75;;;;;14.84;52.71;101287.88;5053602;28;45613;-77
2023/05/20 02:04:00;;;;;;;;;13.50;12.50;;;;;14.82;53.07;101281.88;5069451;28;45701;-80
2023/05/20 02:06:25;;;;;;;;;17.50;12.00;;;;;14.76;52.96;101282.34;5053617;28;46658;-78
2023/05/20 02:08:50;;;;;;;;;15.75;13.25;;;;;14.56;53.34;101265.44;5053285;28;45670;-78
2023/05/20 02:14:37;;;;;;;;;15.50;13.00;;;;;14.69;53.26;101283.78;5053303;28;45603;-80
2023/05/20 02:17:02;;;;;;;;;16.50;14.50;;;;;14.65;53.59;101279.69;5053216;28;46193;-80
2023/05/20 02:19:28;;;;;;;;;11.75;11.00;;;;;14.64;53.68;101288.56;5053404;28;45572;-78
2023/05/20 02:21:53;;;;;;;;;15.25;14.00;;;;;14.52;53.76;101265.81;5053415;28;45654;-79
2023/05/20 02:24:20;;;;;;;;;14.00;12.25;;;;;14.54;53.92;101277.91;5056394;28;45663;-79
2023/05/20 02:26:46;;;;;;;;;18.50;14.25;;;;;14.56;53.97;101293.59;5057606;28;47665;-78
2023/05/20 02:29:11;;;;;;;;;17.50;12.25;;;;;14.53;53.99;101291.19;5057350;28;46376;-78
2023/05/20 02:31:36;;;;;;;;;16.75;14.00;;;;;14.49;54.14;101273.94;5057179;28;45658;-79
2023/05/20 02:34:03;;;;;;;;;16.00;12.50;;;;;14.53;54.08;101275.38;5057837;28;45794;-79
2023/05/20 02:36:28;;;;;;;;;16.00;13.50;;;;;14.52;54.11;101274.53;5060572;28;46219;-79
2023/05/20 02:38:55;;;;;;;;;18.00;14.25;;;;;14.49;54.52;101281.84;5061059;28;46277;-80
2023/05/20 02:44:42;;;;;;;;;18.25;15.25;;;;;14.42;54.61;101260.38;5046457;28;45781;-79
2023/05/20 02:47:07;;;;;;;;;17.00;14.00;;;;;14.31;54.27;101260.31;5057427;28;46666;-79
2023/05/20 02:49:33;;;;;;;;;19.00;16.50;;;;;14.32;54.67;101262.00;5061847;28;45478;-79
2023/05/20 02:51:58;;;;;;;;;18.50;13.50;;;;;14.36;54.76;101271.34;5063007;28;45469;-79
2023/05/20 02:54:24;;;;;;;;;13.50;12.25;;;;;14.21;54.99;101243.53;5065040;28;45489;-80
2023/05/20 02:56:49;;;;;;;;;21.25;17.00;;;;;14.31;55.06;101257.69;5067496;28;45508;-80
2023/05/20 02:59:14;;;;;;;;;16.50;15.00;;;;;14.29;54.98;101263.09;5070907;28;45584;-78
2023/05/20 03:01:40;;;;;;;;;18.00;16.00;;;;;14.33;54.83;101263.69;5061366;28;45552;-80
2023/05/20 03:04:06;;;;;;;;;19.25;19.00;;;;;14.33;54.79;101265.47;5057256;28;45571;-79
2023/05/20 03:06:31;;;;;;;;;19.00;16.50;;;;;14.34;55.04;101261.91;5056577;28;45664;-79
2023/05/20 03:08:57;;;;;;;;;18.25;17.50;;;;;14.13;54.87;101220.41;5056475;28;45655;-79
2023/05/20 03:14:44;;;;;;;;;17.25;17.00;;;;;14.26;55.18;101252.75;5056318;28;45537;-80
2023/05/20 03:17:10;;;;;;;;;20.00;17.25;;;;;14.07;55.17;101212.97;5056200;28;45872;-79
2023/05/20 03:19:35;;;;;;;;;24.00;18.00;;;;;14.24;55.41;101244.16;5056102;28;46060;-79
2023/05/20 03:22:01;;;;;;;;;23.50;20.50;;;;;14.16;55.49;101243.88;5056088;28;45612;-78
2023/05/20 03:24:27;;;;;;;;;17.25;16.25;;;;;14.21;55.40;101246.16;5056266;28;45505;-77
2023/05/20 03:30:15;;;;;;;;;15.50;13.25;;;;;14.23;55.57;101250.38;5055581;28;46016;-78
2023/05/20 03:32:40;;;;;;;;;23.75;19.00;;;;;14.23;55.64;101254.81;5054332;28;45699;-80
2023/05/20 03:35:07;;;;;;;;;19.50;18.00;;;;;14.18;55.63;101249.88;5055485;28;45520;-78
2023/05/20 03:37:32;;;;;;;;;16.00;14.75;;;;;14.06;56.07;101218.34;5055472;28;46605;-79
2023/05/20 03:39:58;;;;;;;;;23.50;19.25;;;;;14.16;56.23;101232.50;5055654;28;45744;-79
2023/05/20 03:42:23;;;;;;;;;18.25;17.50;;;;;14.05;55.65;101209.59;5055678;28;45669;-79
2023/05/20 03:44:48;;;;;;;;;21.50;18.00;;;;;14.20;56.19;101234.78;5055616;28;45572;-79
2023/05/20 03:47:13;;;;;;;;;18.75;15.25;;;;;14.03;56.02;101210.69;5055493;28;45681;-81
2023/05/20 03:49:40;;;;;;;;;17.50;16.00;;;;;14.15;55.98;101239.56;5055393;28;45773;-79
2023/05/20 03:52:06;;;;;;;;;16.50;16.50;;;;;14.02;56.32;101212.47;5055545;28;45664;-79
2023/05/20 03:54:32;;;;;;;;;24.00;21.75;;;;;14.00;56.26;101216.16;5055740;28;45575;-78
2023/05/20 04:00:19;;;;;;;;;23.50;22.00;;;;;13.84;56.18;101184.88;5055064;28;46074;-77
2023/05/20 04:02:44;;;;;;;;;24.25;20.00;;;;;14.03;56.15;101231.75;5055387;27;45738;-79
2023/05/20 04:05:10;;;;;;;;;19.75;17.00;;;;;14.00;56.37;101227.56;5055319;28;45763;-80
2023/05/20 04:07:36;;;;;;;;;21.50;18.75;;;;;14.03;56.35;101240.50;5054894;28;45681;-79
2023/05/20 04:10:02;;;;;;;;;18.75;17.50;;;;;13.97;56.65;101226.94;5055180;28;45797;-78
2023/05/20 04:15:50;;;;;;;;;16.75;15.50;;;;;13.74;56.31;101189.16;5055027;28;45640;-80
2023/05/20 04:18:15;;;;;;;;;24.25;19.25;;;;;13.90;56.49;101207.28;5055095;28;45602;-79
2023/05/20 04:20:41;;;;;;;;;19.75;16.75;;;;;13.98;56.69;101232.09;5054856;28;45686;-79
2023/05/20 04:23:06;;;;;;;;;20.75;19.75;;;;;13.98;56.55;101216.28;5054922;28;45701;-78
2023/05/20 04:25:32;;;;;;;;;23.00;19.50;;;;;14.01;56.43;101221.34;5055957;28;45642;-78
2023/05/20 04:27:58;;;;;;;;;23.75;19.75;;;;;13.99;56.82;101214.50;5055303;28;46409;-79
2023/05/20 04:30:24;;;;;;;;;21.25;18.00;;;;;14.04;56.61;101236.06;5055293;28;46323;-79
2023/05/20 04:32:49;;;;;;;;;22.50;18.50;;;;;14.02;56.45;101217.75;5054733;28;45637;-78
2023/05/20 04:35:15;;;;;;;;;20.00;19.00;;;;;14.02;56.67;101227.44;5055073;28;45596;-79
2023/05/20 04:37:46;;;;;;;;;22.25;20.25;;;;;14.03;56.95;101229.97;5054557;28;45699;-79
2023/05/20 04:40:12;;;;;;;;;24.25;21.00;;;;;13.98;56.46;101218.91;5054728;28;46205;-78
2023/05/20 04:46:00;;;;;;;;;21.25;20.25;;;;;13.83;56.72;101205.09;5042558;28;45791;-79
2023/05/20 04:48:26;;;;;;;;;24.75;20.25;;;;;13.94;57.02;101229.81;5054587;28;46271;-78
2023/05/20 04:50:53;;;;;;;;;21.75;18.50;;;;;13.94;56.80;101214.00;5054642;28;46101;-77
2023/05/20 04:53:20;;;;;;;;;23.75;19.00;;;;;13.85;57.25;101208.47;5054507;28;45538;-78
2023/05/20 04:55:46;;;;;;;;;23.50;21.00;;;;;13.91;56.98;101212.44;5054785;28;45690;-79
2023/05/20 04:58:14;;;;;;;;;20.50;18.50;;;;;14.00;56.79;101224.91;5054318;28;45718;-78
2023/05/20 05:00:45;;;;;;;;;21.00;19.00;;;;;14.01;57.02;101217.84;5054136;28;46393;-78
2023/05/20 05:03:14;;;;;;;;;25.75;23.50;;;;;13.85;56.92;101203.22;5054397;28;45555;-79
2023/05/20 05:05:40;;;;;;;;;24.00;22.75;;;;;13.96;57.47;101220.00;5054369;28;45635;-78
2023/05/20 05:08:06;;;;;;;;;25.00;21.25;;;;;13.97;57.43;101222.53;5053734;28;46349;-78
2023/05/20 05:10:32;;;;;;;;;26.00;23.75;;;;;13.85;57.17;101200.56;5054135;28;45758;-79
2023/05/20 05:16:18;;;;;;;;;23.50;21.25;;;;;13.98;57.20;101215.47;5054093;28;45725;-79
2023/05/20 05:18:44;;;;;;;;;23.00;20.50;;;;;13.89;57.63;101201.19;5053980;28;45748;-79
2023/05/20 05:21:09;;;;;;;;;27.00;23.50;;;;;13.94;57.54;101217.47;5054166;28;45771;-80
2023/05/20 05:23:34;;;;;;;;;27.25;24.25;;;;;13.95;57.43;101216.53;5054147;28;45725;-76
2023/05/20 05:26:00;;;;;;;;;24.00;22.00;;;;;13.98;57.61;101211.00;5054217;28;45773;-78
2023/05/20 05:28:25;;;;;;;;;24.75;22.75;;;;;14.03;57.43;101216.81;5053609;28;46371;-78
2023/05/20 05:30:54;;;;;;;;;22.25;18.00;;;;;14.06;57.33;101215.72;5053899;28;45662;-78
2023/05/20 05:33:21;;;;;;;;;22.75;22.25;;;;;14.03;56.99;101208.06;5053396;28;45948;-77
2023/05/20 05:35:46;;;;;;;;;25.25;20.00;;;;;14.10;57.07;101219.78;5054141;28;45508;-79
2023/05/20 05:38:11;;;;;;;;;22.00;19.00;;;;;13.99;56.96;101201.31;5053594;28;46777;-77
2023/05/20 05:40:37;;;;;;;;;27.75;20.75;;;;;13.96;57.38;101206.81;5053805;28;45735;-79
2023/05/20 05:46:24;;;;;;;;;29.00;22.50;;;;;14.00;57.60;101218.81;5049002;28;45743;-79
2023/05/20 05:48:50;;;;;;;;;22.00;20.50;;;;;13.96;57.47;101220.00;5053549;28;46655;-77
2023/05/20 05:51:16;;;;;;;;;25.00;23.50;;;;;13.94;57.55;101217.47;5053548;28;46540;-80
2023/05/20 05:53:41;;;;;;;;;21.50;18.50;;;;;13.92;57.87;101205.38;5053529;28;45552;-78
2023/05/20 05:56:06;;;;;;;;;27.50;22.75;;;;;14.02;57.67;101215.13;5053911;28;45496;-79
2023/05/20 05:58:32;;;;;;;;;24.50;22.25;;;;;14.04;57.23;101221.09;5053381;28;45442;-75
2023/05/20 06:00:58;;;;;;;;;19.75;18.25;;;;;13.95;57.66;101195.44;5053446;28;46144;-78
2023/05/20 06:03:23;;;;;;;;;25.00;21.50;;;;;14.04;57.73;101218.44;5053469;28;45674;-77
2023/05/20 06:05:49;;;;;;;;;25.25;19.75;;;;;14.05;57.23;101209.59;5053566;28;45545;-78
2023/05/20 06:08:15;;;;;;;;;25.75;22.75;;;;;14.08;57.24;101211.19;5053167;28;45611;-79
2023/05/20 06:10:40;;;;;;;;;29.25;23.00;;;;;14.03;57.33;101201.00;5053227;28;45636;-78
2023/05/20 06:16:27;;;;;;;;;28.50;23.25;;;;;14.06;57.44;101218.34;5053295;28;45670;-80
2023/05/20 06:18:55;;;;;;;;;25.00;20.50;;;;;14.07;57.29;101201.59;5053247;28;45630;-78
2023/05/20 06:21:21;;;;;;;;;22.50;20.75;;;;;13.96;57.20;101191.03;5053261;28;46083;-78
2023/05/20 06:23:47;;;;;;;;;24.75;22.75;;;;;14.10;57.20;101201.34;5053294;28;45783;-79
2023/05/20 06:26:12;;;;;;;;;30.75;26.50;;;;;13.97;57.40;101184.81;5054058;28;45632;-77
2023/05/20 06:32:00;;;;;;;;;22.75;21.00;;;;;14.00;57.46;101182.75;5053907;28;45736;-78
2023/05/20 06:34:25;;;;;;;;;28.50;24.25;;;;;14.13;57.41;101190.59;5054328;28;45681;-78
2023/05/20 06:36:51;;;;;;;;;25.50;21.75;;;;;14.18;57.14;101197.19;5053362;28;45783;-78
2023/05/20 06:39:17;;;;;;;;;25.00;24.50;;;;;14.16;57.13;101183.28;5052952;28;45787;-78
2023/05/20 06:41:43;;;;;;;;;23.50;20.75;;;;;14.20;57.13;101187.34;5052946;28;45955;-79
2023/05/20 06:44:08;;;;;;;;;27.25;23.50;;;;;14.13;57.25;101172.13;5052857;28;45456;-79
2023/05/20 06:46:34;;;;;;;;;25.75;24.00;;;;;14.22;56.97;101195.13;5052697;28;45770;-77
2023/05/20 06:48:59;;;;;;;;;24.75;23.50;;;;;14.08;57.48;101155.84;5052692;28;46582;-78
2023/05/20 06:51:27;;;;;;;;;23.75;19.00;;;;;14.24;57.14;101182.69;5051024;28;47981;-79
2023/05/20 06:53:52;;;;;;;;;33.25;25.00;;;;;14.22;56.89;101176.69;5052800;28;45561;-79
2023/05/20 06:56:17;;;;;;;;;25.50;23.50;;;;;14.21;57.13;101170.56;5053169;28;45783;-78
2023/05/20 07:02:05;;;;;;;;;22.75;19.50;;;;;14.36;56.95;101186.19;5052341;28;45525;-78
2023/05/20 07:04:30;;;;;;;;;23.50;21.50;;;;;14.42;56.96;101175.16;5052625;28;45772;-78
2023/05/20 07:06:55;;;;;;;;;27.25;24.25;;;;;14.47;56.95;101188.81;5052993;28;45571;-79
2023/05/20 07:09:21;;;;;;;;;27.00;22.25;;;;;14.50;56.67;101184.16;5054272;28;45506;-78
2023/05/20 07:11:46;;;;;;;;;23.50;21.75;;;;;14.47;56.93;101173.00;5056026;28;45633;-78
2023/05/20 07:14:12;;;;;;;;;30.50;26.75;;;;;14.51;56.59;101170.03;5056208;28;45750;-79
2023/05/20 07:16:37;;;;;;;;;25.50;20.25;;;;;14.59;56.59;101185.22;5056019;28;45716;-79
2023/05/20 07:19:03;;;;;;;;;25.00;23.00;;;;;14.66;56.67;101182.00;5055758;28;45718;-77
2023/05/20 07:21:28;;;;;;;;;26.75;21.00;;;;;14.68;56.31;101171.34;5055941;28;46016;-79
2023/05/20 07:23:54;;;;;;;;;20.75;19.75;;;;;14.70;56.32;101183.44;5056098;28;45614;-77
2023/05/20 07:26:20;;;;;;;;;27.25;24.75;;;;;14.75;56.31;101176.94;5055921;28;45576;-78
2023/05/20 07:32:08;;;;;;;;;27.25;23.00;;;;;14.87;55.97;101176.81;5055280;28;46387;-81
2023/05/20 07:34:34;;;;;;;;;27.50;23.75;;;;;14.90;56.09;101163.38;5055818;28;45766;-78
2023/05/20 07:37:00;;;;;;;;;25.50;22.50;;;;;14.96;56.13;101164.69;5055568;28;45677;-77
2023/05/20 07:39:25;;;;;;;;;24.25;22.75;;;;;15.06;55.90;101170.91;5055509;28;45706;-77
2023/05/20 07:41:51;;;;;;;;;28.00;25.00;;;;;15.11;55.89;101160.81;5055505;28;45663;-77
2023/05/20 07:47:38;;;;;;;;;28.75;22.50;;;;;15.15;55.17;101135.84;5043554;28;45800;-76
2023/05/20 07:50:03;;;;;;;;;23.50;22.75;;;;;15.27;55.28;101145.41;5055106;28;46736;-76
2023/05/20 07:52:28;;;;;;;;;21.75;20.25;;;;;15.35;54.99;101152.69;5054787;28;46380;-76
2023/05/20 07:54:54;;;;;;;;;24.50;21.75;;;;;15.39;55.16;101157.59;5054990;28;45682;-76
2023/05/20 07:57:19;;;;;;;;;20.25;20.00;;;;;15.45;55.16;101153.59;5054733;28;45700;-76
2023/05/20 07:59:45;;;;;;;;;26.00;22.00;;;;;15.42;54.52;101138.03;5054885;28;46363;-77
2023/05/20 08:02:10;;;;;;;;;22.75;20.50;;;;;15.52;54.62;101142.44;5054639;28;47085;-77
2023/05/20 08:04:35;;;;;;;;;22.00;18.50;;;;;15.52;54.75;101138.97;5055155;28;45658;-76
2023/05/20 08:07:01;;;;;;;;;23.75;21.25;;;;;15.63;54.49;101152.13;5054814;28;45933;-77
2023/05/20 08:09:26;;;;;;;;;27.25;22.25;;;;;15.68;54.19;101149.09;5054985;28;46915;-76
2023/05/20 08:11:51;;;;;;;;;27.00;22.75;;;;;15.72;54.21;101156.63;5054840;28;46174;-77
2023/05/20 08:17:38;;;;;;;;;24.00;23.00;;;;;15.83;54.14;101143.34;5054841;28;45561;-76
2023/05/20 08:20:04;;;;;;;;;23.50;21.75;;;;;15.88;53.99;101141.16;5053977;28;45798;-78
2023/05/20 08:22:30;;;;;;;;;19.75;18.75;;;;;15.91;53.66;101132.97;5054811;28;46079;-76
2023/05/20 08:24:55;;;;;;;;;21.50;19.50;;;;;15.99;53.78;101131.47;5054705;28;45616;-76
2023/05/20 08:27:21;;;;;;;;;19.50;18.25;;;;;15.89;53.58;101103.19;5054826;28;45675;-77
2023/05/20 08:33:08;;;;;;;;;23.25;19.00;;;;;16.13;53.69;101131.16;5054396;28;46229;-77
2023/05/20 08:35:34;;;;;;;;;18.75;17.00;;;;;16.18;53.28;101134.22;5053094;28;45897;-76
2023/05/20 08:38:00;;;;;;;;;20.00;18.25;;;;;16.15;53.21;101130.03;5054404;28;45930;-77
2023/05/20 08:40:26;;;;;;;;;19.50;17.75;;;;;16.24;53.00;101131.06;5054385;28;46916;-77
2023/05/20 08:42:52;;;;;;;;;21.25;18.50;;;;;16.27;53.17;101122.84;5054292;28;45661;-77
2023/05/20 08:45:20;;;;;;;;;20.50;18.25;;;;;16.26;53.25;101111.44;5054785;28;45682;-76
2023/05/20 08:47:46;;;;;;;;;22.00;19.50;;;;;16.38;52.76;101120.09;5054389;28;45457;-77
2023/05/20 08:50:12;;;;;;;;;18.25;17.25;;;;;16.35;52.70;101108.00;5054077;28;46268;-76
2023/05/20 08:52:43;;;;;;;;;24.00;20.75;;;;;16.41;52.51;101114.53;5054312;28;46092;-76
2023/05/20 08:55:14;;;;;;;;;18.50;17.25;;;;;16.46;52.87;101099.13;5054250;28;45474;-78
2023/05/20 08:57:44;;;;;;;;;22.50;19.50;;;;;16.52;52.51;101108.34;5054460;28;45719;-76
2023/05/20 09:03:32;;;;;;;;;20.50;15.50;;;;;16.61;52.11;101115.47;5054632;28;46129;-76
2023/05/20 09:06:06;;;;;;;;;23.00;19.50;;;;;16.63;52.46;101105.59;5054369;28;45636;-76
2023/05/20 09:08:32;;;;;;;;;19.25;17.00;;;;;16.75;51.98;101107.16;5054250;28;45626;-77
2023/05/20 09:10:57;;;;;;;;;20.75;18.00;;;;;16.79;51.95;101095.31;5054292;28;46788;-78
2023/05/20 09:13:23;;;;;;;;;18.75;18.25;;;;;16.89;51.82;101092.69;5054038;28;45631;-77
2023/05/20 09:15:49;;;;;;;;;17.75;16.00;;;;;16.94;51.58;101101.91;5054080;28;45547;-77
2023/05/20 09:18:14;;;;;;;;;16.75;16.00;;;;;16.94;51.19;101098.41;5054063;28;45716;-78
2023/05/20 09:20:40;;;;;;;;;18.00;16.75;;;;;16.92;51.29;101079.19;5053878;28;46922;-77
2023/05/20 09:23:08;;;;;;;;;15.25;14.25;;;;;17.05;51.40;101098.28;5054077;28;45651;-76
2023/05/20 09:25:35;;;;;;;;;19.00;18.00;;;;;17.11;51.35;101105.69;5053805;28;45759;-76
2023/05/20 09:34:26;;;;;;;;;15.75;12.25;;;;;17.30;50.36;101088.94;5053616;28;45879;-77
2023/05/20 09:36:52;;;;;;;;;14.50;12.75;;;;;17.31;50.01;101067.63;5053460;28;46070;-77
2023/05/20 09:39:35;;;;;;;;;13.50;11.50;;;;;17.43;49.75;101078.91;5053779;28;45690;-75
2023/05/20 09:42:06;;;;;;;;;14.50;12.75;;;;;17.46;49.90;101076.78;5053698;28;45589;-76
2023/05/20 09:44:34;;;;;;;;;11.00;11.00;;;;;17.52;50.10;101070.94;5053900;28;46280;-77
2023/05/20 09:47:00;;;;;;;;;14.25;12.50;;;;;17.58;49.35;101078.31;5053953;28;45607;-76
2023/05/20 09:49:29;;;;;;;;;14.00;12.00;;;;;17.65;49.08;101067.19;5054164;28;45496;-76
2023/05/20 09:51:58;;;;;;;;;15.75;14.25;;;;;17.69;49.27;101073.84;5053668;28;45820;-77
2023/05/20 09:54:25;;;;;;;;;9.25;9.00;;;;;17.71;49.04;101053.31;5053712;28;45951;-76
2023/05/20 09:56:55;;;;;;;;;14.50;11.50;;;;;17.80;49.19;101055.97;5069058;28;45845;-77
2023/05/20 09:59:25;;;;;;;;;12.00;11.50;;;;;17.92;48.70;101048.69;5052434;28;45786;-76
2023/05/20 10:01:50;;;;;;;;;11.75;10.75;;;;;17.90;48.31;101030.25;5051980;28;47928;-76
2023/05/20 10:04:18;;;;;;;;;12.25;10.25;;;;;18.04;48.01;101048.31;5053218;28;45578;-78
2023/05/20 10:07:08;;;;;;;;;12.25;11.25;;;;;18.10;48.04;101049.56;5051015;28;45795;-78
2023/05/20 10:09:39;;;;;;;;;12.25;10.75;;;;;18.14;47.99;101072.16;5052630;28;45711;-77
2023/05/20 10:12:21;;;;;;;;;12.75;11.25;;;;;18.19;47.91;101043.34;5052356;28;47276;-78
2023/05/20 10:14:54;;;;;;;;;11.25;11.00;;;;;18.18;48.06;101024.97;5052704;28;45567;-76
2023/05/20 10:17:43;;;;;;;;;12.25;12.00;;;;;18.25;47.45;101029.50;5052247;28;45791;-77
2023/05/20 10:20:12;;;;;;;;;11.00;9.50;;;;;18.27;47.77;101010.81;5052994;28;45734;-79
2023/05/20 10:22:38;;;;;;;;;9.00;7.00;;;;;18.38;46.51;101040.63;5068429;28;45559;-76
2023/05/20 10:25:06;;;;;;;;;11.75;9.25;;;;;18.42;46.56;101023.41;5053843;28;46091;-76
2023/05/20 10:27:45;;;;;;;;;11.00;10.00;;;;;18.46;46.10;101026.63;5053253;28;45781;-78
2023/05/20 10:30:21;;;;;;;;;10.25;9.75;;;;;18.53;46.57;101042.75;5057252;28;45582;-78
2023/05/20 10:33:05;;;;;;;;;5.75;5.00;;;;;18.58;46.08;101037.88;5059350;28;45796;-77
2023/05/20 10:35:31;;;;;;;;;11.00;10.00;;;;;18.51;45.88;101008.44;5056135;28;45991;-76
2023/05/20 10:38:11;;;;;;;;;10.00;9.00;;;;;18.56;45.97;101011.50;5056232;28;45618;-76
2023/05/20 10:40:36;;;;;;;;;8.00;8.00;;;;;18.70;45.78;101016.28;5057073;28;45573;-76
2023/05/20 10:43:15;;;;;;;;;11.00;9.75;;;;;18.77;45.23;101024.47;5056585;28;46836;-77
2023/05/20 10:45:52;;;;;;;;;9.00;8.50;;;;;18.64;45.38;100978.88;5061279;28;45689;-78
2023/05/20 10:48:30;;;;;;;;;11.75;11.00;;;;;18.89;45.00;101017.13;5077100;28;45800;-77
2023/05/20 10:50:58;;;;;;;;;10.00;9.00;;;;;18.92;45.47;101012.31;5057878;28;45624;-77
2023/05/20 10:53:26;;;;;;;;;9.75;9.75;;;;;18.93;44.95;101008.69;5057035;28;46537;-78
2023/05/20 10:55:53;;;;;;;;;10.75;10.75;;;;;19.00;45.05;101003.59;5056387;28;46446;-78
2023/05/20 10:58:21;;;;;;;;;11.00;10.00;;;;;19.11;44.68;101006.81;5056500;28;45566;-78
2023/05/20 11:00:47;;;;;;;;;10.50;9.25;;;;;19.20;44.93;101008.56;5057133;28;45508;-76
2023/05/20 11:03:15;;;;;;;;;10.00;9.00;;;;;19.24;44.61;100987.84;5057424;28;46649;-77
2023/05/20 11:05:40;;;;;;;;;9.25;9.00;;;;;19.29;44.16;101004.13;5058068;28;46080;-76
2023/05/20 11:08:07;;;;;;;;;11.00;9.00;;;;;19.31;43.74;101001.34;5057441;28;45744;-77
2023/05/20 11:10:33;;;;;;;;;12.75;10.50;;;;;19.29;43.80;101002.31;5057237;28;45556;-79
2023/05/20 11:13:01;;;;;;;;;12.50;10.75;;;;;19.18;44.00;100970.69;5056590;28;45652;-77
2023/05/20 11:15:26;;;;;;;;;7.75;7.75;;;;;19.40;43.62;100998.56;5056314;28;46334;-78
2023/05/20 11:17:56;;;;;;;;;7.00;6.00;;;;;19.46;43.24;100992.66;5056145;28;45602;-77
2023/05/20 11:20:23;;;;;;;;;8.75;8.00;;;;;19.53;42.84;100988.41;5056531;28;45606;-77
2023/05/20 11:22:50;;;;;;;;;10.00;9.25;;;;;19.61;42.66;100987.59;5056436;28;46661;-78
2023/05/20 11:25:17;;;;;;;;;10.00;9.00;;;;;19.64;42.69;100993.44;5056384;28;46055;-78
2023/05/20 11:27:43;;;;;;;;;8.00;7.00;;;;;19.69;41.67;100974.34;5056200;28;45847;-79
2023/05/20 11:30:11;;;;;;;;;8.00;8.00;;;;;19.78;42.00;100989.34;5056273;28;45724;-78
2023/05/20 11:32:36;;;;;;;;;8.75;7.75;;;;;19.74;41.41;100974.72;5055623;28;46435;-77
2023/05/20 11:35:03;;;;;;;;;8.25;8.25;;;;;19.83;41.22;100984.38;5055967;28;45690;-76
2023/05/20 11:37:29;;;;;;;;;7.00;7.00;;;;;19.76;41.16;100966.59;5055550;28;45591;-78
2023/05/20 11:40:08;;;;;;;;;9.00;8.00;;;;;19.96;40.91;100989.25;5055836;28;45690;-77
2023/05/20 11:42:35;;;;;;;;;6.75;6.75;;;;;19.99;41.19;100995.09;5055440;28;46957;-78
2023/05/20 11:45:01;;;;;;;;;8.50;8.00;;;;;20.07;41.20;100981.84;5055299;28;47075;-77
2023/05/20 11:47:26;;;;;;;;;8.00;8.00;;;;;20.15;41.32;100983.66;5055349;28;45711;-76
2023/05/20 11:49:52;;;;;;;;;8.25;8.00;;;;;20.09;41.22;100966.53;5055568;28;45889;-77
2023/05/20 11:52:18;;;;;;;;;10.00;8.25;;;;;20.20;40.79;100980.50;5053934;28;47465;-77
2023/05/20 11:54:43;;;;;;;;;7.75;7.00;;;;;20.29;40.66;100992.88;5055431;28;46210;-76
2023/05/20 11:57:10;;;;;;;;;7.25;7.00;;;;;20.29;40.72;100971.56;5070788;28;45678;-80
2023/05/20 11:59:36;;;;;;;;;8.25;7.00;;;;;20.32;40.73;100969.44;5055524;28;45881;-78
2023/05/20 12:02:02;;;;;;;;;7.00;7.00;;;;;20.39;40.63;100967.81;5054990;28;46655;-77
2023/05/20 12:04:28;;;;;;;;;8.75;8.25;;;;;20.38;40.39;100950.16;5055159;28;47090;-77
2023/05/20 12:06:54;;;;;;;;;9.75;9.75;;;;;20.54;40.29;100968.00;5055314;28;45570;-78
2023/05/20 12:09:20;;;;;;;;;10.25;9.00;;;;;20.55;40.06;100960.84;5071180;28;45564;-77
2023/05/20 12:11:45;;;;;;;;;7.00;7.00;;;;;20.57;40.50;100972.97;5055077;28;46439;-75
2023/05/20 12:14:10;;;;;;;;;8.75;8.00;;;;;20.62;40.25;100953.88;5054954;28;47179;-76
2023/05/20 12:19:57;;;;;;;;;8.50;7.25;;;;;20.75;40.21;100968.34;5055269;28;45524;-78
2023/05/20 12:22:23;;;;;;;;;9.00;7.50;;;;;20.70;40.22;100953.84;5054784;28;46593;-78
2023/05/20 12:24:49;;;;;;;;;9.00;8.75;;;;;20.75;40.14;100949.69;5054729;28;46104;-78
2023/05/20 12:27:14;;;;;;;;;7.75;7.25;;;;;20.86;40.01;100956.50;5054780;28;45702;-77
2023/05/20 12:29:40;;;;;;;;;9.75;9.00;;;;;20.90;39.93;100955.19;5055175;28;45516;-78
2023/05/20 12:35:38;;;;;;;;;8.50;8.00;;;;;21.08;40.17;100947.84;5054711;28;45925;-75
2023/05/20 12:38:04;;;;;;;;;10.00;9.00;;;;;21.15;40.04;100943.53;5054493;28;45756;-78